createdAt,value
2019-02-17T00:01:18.713Z,99086.66
2019-02-17T00:03:50.586Z,99087.50
2019-02-17T00:06:23.363Z,99078.22
2019-02-17T00:08:55.227Z,99072.84
2019-02-17T00:11:27.095Z,99080.41
2019-02-17T00:13:59.943Z,99077.04
2019-02-17T00:16:31.832Z,99081.63
2019-02-17T00:19:03.687Z,99075.22
2019-02-17T00:21:35.544Z,99078.29
2019-02-17T00:24:07.422Z,99069.84
2019-02-17T00:26:39.256Z,99069.88
2019-02-17T00:29:11.115Z,99069.16
2019-02-17T00:31:42.960Z,99071.82
2019-02-17T00:34:14.831Z,99073.53
2019-02-17T00:36:46.681Z,99075.23
2019-02-17T00:39:18.717Z,99066.33
2019-02-17T00:41:50.658Z,99062.58
2019-02-17T00:44:22.529Z,99067.32
2019-02-17T00:46:54.367Z,99061.78
2019-02-17T00:49:28.314Z,99068.73
2019-02-17T00:52:00.220Z,99063.27
2019-02-17T00:54:32.098Z,99061.94
2019-02-17T00:57:03.929Z,99058.98
2019-02-17T00:59:35.763Z,99050.72
2019-02-17T01:02:07.622Z,99057.24
2019-02-17T01:04:39.507Z,99059.02
2019-02-17T01:07:11.348Z,99060.77
2019-02-17T01:09:43.211Z,99062.09
2019-02-17T01:12:15.063Z,99059.14
2019-02-17T01:14:46.894Z,99055.39
2019-02-17T01:17:18.761Z,99057.97
2019-02-17T01:19:50.654Z,99057.09
2019-02-17T01:22:22.517Z,99055.42
2019-02-17T01:24:54.337Z,99055.08
2019-02-17T01:27:26.180Z,99051.29
2019-02-17T01:29:58.012Z,99047.13
2019-02-17T01:32:29.856Z,99053.00
2019-02-17T01:35:01.681Z,99046.67
2019-02-17T01:37:33.522Z,99044.92
2019-02-17T01:40:06.551Z,99041.09
2019-02-17T01:42:38.387Z,99044.05
2019-02-17T01:45:11.883Z,99041.52
2019-02-17T01:47:44.691Z,99043.79
2019-02-17T01:50:16.525Z,99037.00
2019-02-17T01:52:48.390Z,99037.88
2019-02-17T01:55:20.242Z,99041.74
2019-02-17T01:57:52.107Z,99031.89
2019-02-17T02:00:23.977Z,99034.58
2019-02-17T02:02:55.836Z,99031.23
2019-02-17T02:05:27.791Z,99035.52
2019-02-17T02:07:59.858Z,99036.81
2019-02-17T02:10:33.316Z,99038.48
2019-02-17T02:13:05.217Z,99029.05
2019-02-17T02:15:38.335Z,99028.70
2019-02-17T02:18:10.212Z,99024.91
2019-02-17T02:20:42.268Z,99027.56
2019-02-17T02:23:15.644Z,99024.60
2019-02-17T02:25:47.514Z,99025.89
2019-02-17T02:28:20.840Z,99031.57
2019-02-17T02:30:52.701Z,99038.81
2019-02-17T02:33:24.599Z,99029.45
2019-02-17T02:35:56.467Z,99034.64
2019-02-17T02:38:29.385Z,99031.75
2019-02-17T02:41:01.959Z,99036.91
2019-02-17T02:43:33.780Z,99034.70
2019-02-17T02:46:05.646Z,99028.27
2019-02-17T02:48:37.756Z,99029.91
2019-02-17T02:51:09.611Z,99032.48
2019-02-17T02:53:41.468Z,99024.41
2019-02-17T02:56:13.335Z,99030.42
2019-02-17T02:58:45.191Z,99029.21
2019-02-17T03:01:17.095Z,99026.22
2019-02-17T03:03:49.055Z,99022.32
2019-02-17T03:06:28.095Z,99028.41
2019-02-17T03:08:59.948Z,99021.48
2019-02-17T03:11:31.795Z,99031.34
2019-02-17T03:14:03.669Z,99030.23
2019-02-17T03:16:35.514Z,99021.32
2019-02-17T03:19:10.441Z,99022.53
2019-02-17T03:21:42.308Z,99019.13
2019-02-17T03:24:14.153Z,99021.28
2019-02-17T03:26:46.005Z,99019.61
2019-02-17T03:29:17.846Z,99030.41
2019-02-17T03:31:49.728Z,99026.99
2019-02-17T03:34:23.352Z,99033.57
2019-02-17T03:36:55.198Z,99038.38
2019-02-17T03:39:30.084Z,99037.98
2019-02-17T03:42:02.167Z,99035.87
2019-02-17T03:44:33.997Z,99040.28
2019-02-17T03:47:05.860Z,99042.54
2019-02-17T03:49:37.701Z,99045.56
2019-02-17T03:52:09.567Z,99043.86
2019-02-17T03:54:41.398Z,99035.09
2019-02-17T03:57:13.284Z,99030.05
2019-02-17T03:59:45.122Z,99026.22
2019-02-17T04:02:16.961Z,99038.33
2019-02-17T04:04:48.834Z,99035.33
2019-02-17T04:07:20.704Z,99025.39
2019-02-17T04:09:52.793Z,99022.88
2019-02-17T04:12:24.758Z,99032.83
2019-02-17T04:14:56.601Z,99033.77
2019-02-17T04:17:28.648Z,99038.04
2019-02-17T04:20:00.515Z,99031.22
2019-02-17T04:22:32.369Z,99031.28
2019-02-17T04:25:04.196Z,99023.15
2019-02-17T04:27:36.071Z,99029.09
2019-02-17T04:30:08.865Z,99026.20
2019-02-17T04:32:40.696Z,99024.98
2019-02-17T04:35:13.593Z,99024.63
2019-02-17T04:37:45.507Z,99019.88
2019-02-17T04:40:18.460Z,99018.33
2019-02-17T04:42:50.314Z,99015.02
2019-02-17T04:45:22.188Z,99018.91
2019-02-17T04:47:57.142Z,99018.52
2019-02-17T04:50:28.972Z,99014.21
2019-02-17T04:53:00.792Z,99012.99
2019-02-17T04:55:32.639Z,99011.38
2019-02-17T04:58:04.480Z,99012.60
2019-02-17T05:00:40.106Z,99013.92
2019-02-17T05:03:09.840Z,99012.64
2019-02-17T05:05:41.701Z,99010.06
2019-02-17T05:08:13.527Z,99020.23
2019-02-17T05:10:45.385Z,99016.69
2019-02-17T05:13:17.218Z,99015.05
2019-02-17T05:15:49.071Z,99011.77
2019-02-17T05:18:20.892Z,99013.05
2019-02-17T05:20:52.786Z,99015.59
2019-02-17T05:23:24.580Z,99012.51
2019-02-17T05:25:56.456Z,99013.80
2019-02-17T05:28:28.273Z,99012.95
2019-02-17T05:31:00.140Z,99015.20
2019-02-17T05:33:31.959Z,99014.34
2019-02-17T05:36:03.818Z,99014.05
2019-02-17T05:38:35.652Z,99018.48
2019-02-17T05:41:07.514Z,99015.09
2019-02-17T05:43:42.432Z,99015.06
2019-02-17T05:46:16.167Z,99016.09
2019-02-17T05:48:48.000Z,99016.12
2019-02-17T05:51:19.852Z,99015.02
2019-02-17T05:53:53.422Z,99008.20
2019-02-17T05:56:25.230Z,99013.84
2019-02-17T05:58:57.051Z,99012.44
2019-02-17T06:01:28.921Z,99012.44
2019-02-17T06:04:00.755Z,99020.16
2019-02-17T06:06:32.610Z,99017.98
2019-02-17T06:09:05.356Z,99015.28
2019-02-17T06:11:38.742Z,99017.02
2019-02-17T06:14:10.591Z,99011.84
2019-02-17T06:16:42.434Z,99011.84
2019-02-17T06:19:14.297Z,99014.03
2019-02-17T06:21:46.107Z,99017.37
2019-02-17T06:24:17.948Z,99016.06
2019-02-17T06:26:51.619Z,99019.05
2019-02-17T06:29:27.439Z,99030.20
2019-02-17T06:31:59.270Z,99030.27
2019-02-17T06:34:31.096Z,99027.30
2019-02-17T06:37:02.912Z,99039.80
2019-02-17T06:39:34.773Z,99043.16
2019-02-17T06:42:06.612Z,99032.39
2019-02-17T06:44:38.515Z,99036.66
2019-02-17T06:47:16.634Z,99045.19
2019-02-17T06:49:48.478Z,99045.55
2019-02-17T06:52:20.300Z,99050.80
2019-02-17T06:55:19.184Z,99042.90
2019-02-17T06:57:51.001Z,99055.19
2019-02-17T07:00:27.292Z,99052.98
2019-02-17T07:02:59.110Z,99057.27
2019-02-17T07:05:56.667Z,99050.33
2019-02-17T07:08:28.263Z,99055.53
2019-02-17T07:11:00.114Z,99055.84
2019-02-17T07:13:32.034Z,99055.91
2019-02-17T07:16:03.895Z,99061.02
2019-02-17T07:18:35.734Z,99061.02
2019-02-17T07:21:07.591Z,99066.19
2019-02-17T07:23:39.439Z,99064.06
2019-02-17T07:26:11.316Z,99068.38
2019-02-17T07:28:43.150Z,99067.06
2019-02-17T07:31:16.329Z,99073.20
2019-02-17T07:33:48.133Z,99068.38
2019-02-17T07:36:21.942Z,99067.03
2019-02-17T07:38:53.518Z,99066.23
2019-02-17T07:41:25.100Z,99053.86
2019-02-17T07:43:56.987Z,99054.55
2019-02-17T07:46:28.929Z,99054.45
2019-02-17T07:49:01.105Z,99050.38
2019-02-17T07:51:32.929Z,99052.61
2019-02-17T07:54:04.799Z,99057.75
2019-02-17T07:56:36.617Z,99060.33
2019-02-17T07:59:08.190Z,99061.00
2019-02-17T08:01:45.194Z,99054.34
2019-02-17T08:04:13.580Z,99050.23
2019-02-17T08:06:45.124Z,99044.80
2019-02-17T08:09:16.962Z,99046.45
2019-02-17T08:11:48.795Z,99044.80
2019-02-17T08:14:20.684Z,99043.73
2019-02-17T08:16:52.569Z,99036.12
2019-02-17T08:19:24.408Z,99038.45
2019-02-17T08:21:55.964Z,99037.73
2019-02-17T08:24:27.535Z,99038.10
2019-02-17T08:26:59.409Z,99034.20
2019-02-17T08:29:31.273Z,99040.80
2019-02-17T08:32:02.905Z,99035.53
2019-02-17T08:34:34.476Z,99041.52
2019-02-17T08:37:06.023Z,99033.95
2019-02-17T08:39:37.726Z,99031.11
2019-02-17T08:42:09.305Z,99031.43
2019-02-17T08:44:40.935Z,99025.06
2019-02-17T08:47:12.525Z,99028.57
2019-02-17T08:49:45.093Z,99020.64
2019-02-17T08:52:16.694Z,99026.53
2019-02-17T08:54:48.277Z,99030.55
2019-02-17T08:57:19.870Z,99026.31
2019-02-17T08:59:51.458Z,99026.94
2019-02-17T09:02:23.035Z,99039.39
2019-02-17T09:04:54.613Z,99038.55
2019-02-17T09:07:26.229Z,99034.36
2019-02-17T09:09:57.817Z,99033.90
2019-02-17T09:12:29.455Z,99025.63
2019-02-17T09:15:01.026Z,99033.02
2019-02-17T09:17:34.718Z,99033.17
2019-02-17T09:20:08.027Z,99029.66
2019-02-17T09:22:42.498Z,99034.59
2019-02-17T09:25:14.426Z,99027.45
2019-02-17T09:27:46.019Z,99029.18
2019-02-17T09:30:18.255Z,99020.88
2019-02-17T09:32:49.877Z,99021.47
2019-02-17T09:35:21.438Z,99030.43
2019-02-17T09:37:53.163Z,99028.17
2019-02-17T09:40:24.758Z,99027.69
2019-02-17T09:42:57.710Z,99021.52
2019-02-17T09:45:29.225Z,99025.72
2019-02-17T09:48:02.621Z,99020.72
2019-02-17T09:50:34.248Z,99016.05
2019-02-17T09:53:08.893Z,99013.84
2019-02-17T09:55:40.533Z,99015.49
2019-02-17T09:58:12.644Z,99014.22
2019-02-17T10:00:44.272Z,99013.58
2019-02-17T10:03:15.834Z,99015.74
2019-02-17T10:05:47.470Z,99014.55
2019-02-17T10:08:20.105Z,99011.97
2019-02-17T10:10:51.733Z,99024.25
2019-02-17T10:13:23.323Z,99020.79
2019-02-17T10:15:54.933Z,99020.41
2019-02-17T10:18:26.504Z,99018.16
2019-02-17T10:20:59.171Z,99018.45
2019-02-17T10:23:30.748Z,99014.97
2019-02-17T10:26:02.352Z,99017.45
2019-02-17T10:28:42.099Z,99027.43
2019-02-17T10:31:07.363Z,99023.98
2019-02-17T10:33:40.582Z,99022.50
2019-02-17T10:36:14.273Z,99014.99
2019-02-17T10:38:45.901Z,99013.98
2019-02-17T10:41:17.483Z,99012.47
2019-02-17T10:43:49.187Z,99008.19
2019-02-17T10:46:20.923Z,99006.05
2019-02-17T10:48:52.501Z,99000.95
2019-02-17T10:51:26.453Z,98990.86
2019-02-17T10:53:57.575Z,99000.83
2019-02-17T10:56:29.166Z,98991.64
2019-02-17T10:59:00.812Z,98988.03
2019-02-17T11:01:32.411Z,98984.60
2019-02-17T11:04:09.925Z,98989.53
2019-02-17T11:06:41.549Z,98983.86
2019-02-17T11:09:19.251Z,98983.80
2019-02-17T11:11:51.452Z,98982.42
2019-02-17T11:14:23.063Z,98974.83
2019-02-17T11:16:55.716Z,98974.27
2019-02-17T11:19:27.355Z,98964.48
2019-02-17T11:21:58.935Z,98976.27
2019-02-17T11:24:30.545Z,98967.78
2019-02-17T11:27:02.101Z,98965.66
2019-02-17T11:29:33.740Z,98956.22
2019-02-17T11:32:05.333Z,98954.16
2019-02-17T11:34:36.914Z,98952.95
2019-02-17T11:37:08.494Z,98944.95
2019-02-17T11:39:40.117Z,98947.40
2019-02-17T11:42:11.691Z,98943.72
2019-02-17T11:44:43.350Z,98941.09
2019-02-17T11:47:14.945Z,98938.34
2019-02-17T11:49:46.581Z,98933.58
2019-02-17T11:52:18.150Z,98931.40
2019-02-17T11:54:49.774Z,98928.06
2019-02-17T11:57:21.356Z,98925.20
2019-02-17T11:59:53.089Z,98924.26
2019-02-17T12:02:25.481Z,98916.38
2019-02-17T12:04:57.207Z,98916.97
2019-02-17T12:07:28.827Z,98912.09
2019-02-17T12:10:01.494Z,98911.26
2019-02-17T12:12:33.155Z,98904.09
2019-02-17T12:15:06.375Z,98901.83
2019-02-17T12:17:37.974Z,98897.51
2019-02-17T12:20:34.918Z,98888.05
2019-02-17T12:23:10.912Z,98885.30
2019-02-17T12:25:53.464Z,98888.05
2019-02-17T12:28:33.502Z,98881.45
2019-02-17T12:31:05.116Z,98876.22
2019-02-17T12:33:36.760Z,98873.59
2019-02-17T12:36:08.393Z,98870.36
2019-02-17T12:38:41.601Z,98873.25
2019-02-17T12:41:13.194Z,98863.67
2019-02-17T12:43:44.768Z,98865.36
2019-02-17T12:46:16.375Z,98863.58
2019-02-17T12:48:48.085Z,98859.75
2019-02-17T12:51:19.789Z,98851.52
2019-02-17T12:53:51.477Z,98854.14
2019-02-17T12:56:24.131Z,98846.72
2019-02-17T12:58:55.734Z,98842.90
2019-02-17T13:01:27.338Z,98844.81
2019-02-17T13:03:58.968Z,98844.23
2019-02-17T13:06:30.595Z,98839.58
2019-02-17T13:09:02.199Z,98833.48
2019-02-17T13:11:34.924Z,98827.86
2019-02-17T13:14:06.674Z,98827.98
2019-02-17T13:16:38.251Z,98827.39
2019-02-17T13:19:09.877Z,98828.47
2019-02-17T13:21:41.439Z,98821.28
2019-02-17T13:24:13.039Z,98823.91
2019-02-17T13:26:44.612Z,98820.80
2019-02-17T13:29:16.237Z,98820.31
2019-02-17T13:31:48.018Z,98815.78
2019-02-17T13:34:19.669Z,98813.38
2019-02-17T13:36:51.374Z,98810.78
2019-02-17T13:39:23.011Z,98806.80
2019-02-17T13:41:54.617Z,98806.80
2019-02-17T13:44:26.239Z,98809.77
2019-02-17T13:46:57.817Z,98799.36
2019-02-17T13:49:29.490Z,98805.91
2019-02-17T13:52:01.076Z,98802.45
2019-02-17T13:54:32.688Z,98800.76
2019-02-17T13:57:04.253Z,98795.24
2019-02-17T13:59:35.869Z,98798.58
2019-02-17T14:02:07.517Z,98792.36
2019-02-17T14:04:39.114Z,98790.30
2019-02-17T14:07:10.768Z,98789.69
2019-02-17T14:09:42.424Z,98787.50
2019-02-17T14:12:15.075Z,98787.25
2019-02-17T14:14:47.008Z,98772.38
2019-02-17T14:17:18.825Z,98775.36
2019-02-17T14:19:50.443Z,98772.60
2019-02-17T14:22:22.049Z,98770.30
2019-02-17T14:24:53.672Z,98769.72
2019-02-17T14:27:25.391Z,98769.22
2019-02-17T14:29:57.011Z,98766.59
2019-02-17T14:32:28.720Z,98759.50
2019-02-17T14:35:00.443Z,98761.68
2019-02-17T14:37:32.050Z,98756.41
2019-02-17T14:40:03.729Z,98755.92
2019-02-17T14:42:36.852Z,98742.73
2019-02-17T14:45:08.986Z,98753.77
2019-02-17T14:47:40.586Z,98753.05
2019-02-17T14:50:12.518Z,98749.58
2019-02-17T14:52:44.163Z,98744.80
2019-02-17T14:55:17.052Z,98742.75
2019-02-17T14:57:48.682Z,98740.38
2019-02-17T15:00:20.317Z,98740.04
2019-02-17T15:02:52.171Z,98747.58
2019-02-17T15:05:23.755Z,98742.07
2019-02-17T15:07:55.473Z,98738.73
2019-02-17T15:10:30.448Z,98733.23
2019-02-17T15:13:02.167Z,98729.28
2019-02-17T15:15:33.811Z,98727.75
2019-02-17T15:18:07.975Z,98724.75
2019-02-17T15:20:41.211Z,98720.92
2019-02-17T15:23:12.789Z,98718.55
2019-02-17T15:25:49.693Z,98717.48
2019-02-17T15:28:21.467Z,98715.10
2019-02-17T15:30:53.566Z,98707.12
2019-02-17T15:33:25.243Z,98705.69
2019-02-17T15:35:58.646Z,98704.63
2019-02-17T15:38:30.277Z,98701.29
2019-02-17T15:41:08.269Z,98701.05
2019-02-17T15:43:43.907Z,98696.41
2019-02-17T15:46:18.237Z,98694.14
2019-02-17T15:48:59.889Z,98693.41
2019-02-17T15:51:31.470Z,98694.52
2019-02-17T15:54:06.009Z,98692.59
2019-02-17T15:56:41.724Z,98686.06
2019-02-17T15:59:18.381Z,98688.11
2019-02-17T16:01:51.294Z,98693.88
2019-02-17T16:04:28.539Z,98688.46
2019-02-17T16:06:56.338Z,98682.25
2019-02-17T16:09:30.286Z,98686.08
2019-02-17T16:12:01.868Z,98682.75
2019-02-17T16:14:33.592Z,98679.99
2019-02-17T16:17:09.666Z,98680.36
2019-02-17T16:19:41.683Z,98679.33
2019-02-17T16:22:15.580Z,98671.09
2019-02-17T16:24:47.202Z,98671.59
2019-02-17T16:27:18.833Z,98674.34
2019-02-17T16:29:50.607Z,98666.56
2019-02-17T16:32:22.165Z,98670.63
2019-02-17T16:34:53.752Z,98672.31
2019-02-17T16:37:25.716Z,98670.91
2019-02-17T16:40:01.141Z,98668.38
2019-02-17T16:42:38.079Z,98673.78
2019-02-17T16:45:16.623Z,98670.68
2019-02-17T16:47:48.307Z,98669.34
2019-02-17T16:50:27.889Z,98665.25
2019-02-17T16:52:59.481Z,98666.67
2019-02-17T16:55:38.366Z,98656.39
2019-02-17T16:58:10.069Z,98664.72
2019-02-17T17:00:46.388Z,98667.18
2019-02-17T17:03:18.016Z,98665.33
2019-02-17T17:05:49.695Z,98671.11
2019-02-17T17:08:21.361Z,98661.92
2019-02-17T17:10:52.965Z,98672.47
2019-02-17T17:13:28.094Z,98674.05
2019-02-17T17:16:04.120Z,98670.33
2019-02-17T17:18:37.196Z,98675.34
2019-02-17T17:21:10.109Z,98674.98
2019-02-17T17:23:41.713Z,98671.19
2019-02-17T17:26:14.654Z,98672.03
2019-02-17T17:28:47.792Z,98679.31
2019-02-17T17:31:27.065Z,98674.14
2019-02-17T17:34:01.058Z,98675.69
2019-02-17T17:36:34.591Z,98675.30
2019-02-17T17:39:07.487Z,98676.59
2019-02-17T17:41:46.154Z,98681.61
2019-02-17T17:44:17.725Z,98683.23
2019-02-17T17:46:49.384Z,98680.00
2019-02-17T17:49:21.002Z,98683.69
2019-02-17T17:51:54.150Z,98680.84
2019-02-17T17:54:30.831Z,98688.78
2019-02-17T17:57:07.024Z,98686.85
2019-02-17T17:59:38.712Z,98692.30
2019-02-17T18:02:15.420Z,98690.55
2019-02-17T18:04:50.027Z,98691.38
2019-02-17T18:07:25.183Z,98690.16
2019-02-17T18:10:03.993Z,98694.65
2019-02-17T18:12:38.883Z,98692.89
2019-02-17T18:15:13.825Z,98688.41
2019-02-17T18:17:53.819Z,98689.23
2019-02-17T18:20:23.126Z,98694.66
2019-02-17T18:22:57.954Z,98698.20
2019-02-17T18:25:29.566Z,98690.63
2019-02-17T18:28:01.339Z,98694.25
2019-02-17T18:30:33.040Z,98693.92
2019-02-17T18:33:07.501Z,98697.37
2019-02-17T18:35:39.173Z,98693.72
2019-02-17T18:38:13.953Z,98695.86
2019-02-17T18:40:47.848Z,98701.12
2019-02-17T18:43:21.775Z,98697.39
2019-02-17T18:45:53.425Z,98693.34
2019-02-17T18:48:25.039Z,98694.12
2019-02-17T18:50:59.439Z,98695.25
2019-02-17T18:53:34.104Z,98693.56
2019-02-17T18:56:05.801Z,98693.16
2019-02-17T18:58:40.471Z,98687.73
2019-02-17T19:01:12.296Z,98689.58
2019-02-17T19:03:44.140Z,98699.20
2019-02-17T19:06:18.619Z,98699.08
2019-02-17T19:08:50.548Z,98700.11
2019-02-17T19:11:23.832Z,98697.92
2019-02-17T19:13:57.021Z,98697.94
2019-02-17T19:16:33.190Z,98700.86
2019-02-17T19:19:04.815Z,98702.48
2019-02-17T19:21:36.533Z,98708.88
2019-02-17T19:24:10.287Z,98701.55
2019-02-17T19:26:41.836Z,98698.64
2019-02-17T19:29:25.486Z,98699.20
2019-02-17T19:31:57.073Z,98707.78
2019-02-17T19:34:28.742Z,98702.67
2019-02-17T19:37:02.147Z,98698.17
2019-02-17T19:39:33.766Z,98696.25
2019-02-17T19:42:06.091Z,98691.05
2019-02-17T19:44:41.770Z,98694.74
2019-02-17T19:47:13.340Z,98688.31
2019-02-17T19:49:44.961Z,98690.71
2019-02-17T19:52:16.601Z,98687.41
2019-02-17T19:54:50.541Z,98694.69
2019-02-17T19:57:22.275Z,98696.34
2019-02-17T19:59:59.854Z,98698.22
2019-02-17T20:02:50.616Z,98695.09
2019-02-17T20:05:25.287Z,98698.56
2019-02-17T20:07:57.965Z,98697.78
2019-02-17T20:10:34.499Z,98700.77
2019-02-17T20:13:08.415Z,98707.84
2019-02-17T20:15:40.245Z,98706.22
2019-02-17T20:18:14.280Z,98710.78
2019-02-17T20:20:46.989Z,98705.20
2019-02-17T20:23:20.354Z,98712.11
2019-02-17T20:25:59.308Z,98715.92
2019-02-17T20:28:40.840Z,98718.52
2019-02-17T20:31:06.657Z,98717.50
2019-02-17T20:33:42.329Z,98719.69
2019-02-17T20:36:18.389Z,98719.50
2019-02-17T20:38:50.006Z,98724.53
2019-02-17T20:41:22.756Z,98723.67
2019-02-17T20:43:54.537Z,98729.45
2019-02-17T20:46:26.111Z,98729.27
2019-02-17T20:49:05.104Z,98729.09
2019-02-17T20:51:36.714Z,98726.58
2019-02-17T20:54:12.499Z,98721.19
2019-02-17T20:56:44.107Z,98723.09
2019-02-17T20:59:16.804Z,98726.91
2019-02-17T21:01:49.748Z,98729.63
2019-02-17T21:04:24.505Z,98726.28
2019-02-17T21:06:56.122Z,98728.87
2019-02-17T21:09:28.860Z,98733.59
2019-02-17T21:12:00.455Z,98731.73
2019-02-17T21:14:32.099Z,98725.38
2019-02-17T21:17:03.788Z,98725.23
2019-02-17T21:19:35.362Z,98730.25
2019-02-17T21:22:07.092Z,98726.89
2019-02-17T21:24:38.674Z,98726.95
2019-02-17T21:27:10.290Z,98731.53
2019-02-17T21:29:41.994Z,98733.02
2019-02-17T21:32:16.536Z,98740.36
2019-02-17T21:34:47.144Z,98731.48
2019-02-17T21:37:18.754Z,98727.78
2019-02-17T21:39:53.512Z,98725.91
2019-02-17T21:42:25.153Z,98728.56
2019-02-17T21:44:59.245Z,98730.05
2019-02-17T21:47:32.887Z,98731.13
2019-02-17T21:50:07.149Z,98727.77
2019-02-17T21:52:42.213Z,98730.42
2019-02-17T21:55:15.515Z,98734.89
2019-02-17T21:57:48.732Z,98728.61
2019-02-17T22:00:22.553Z,98731.91
2019-02-17T22:02:54.157Z,98733.27
2019-02-17T22:05:27.449Z,98734.34
2019-02-17T22:07:58.986Z,98729.47
2019-02-17T22:10:32.995Z,98727.00
2019-02-17T22:13:06.218Z,98728.94
2019-02-17T22:15:44.227Z,98722.19
2019-02-17T22:18:17.443Z,98723.23
2019-02-17T22:20:51.789Z,98727.36
2019-02-17T22:23:23.546Z,98727.84
2019-02-17T22:25:58.074Z,98720.29
2019-02-17T22:28:29.658Z,98718.69
2019-02-17T22:31:02.631Z,98719.29
2019-02-17T22:33:37.133Z,98712.63
2019-02-17T22:36:09.094Z,98717.41
2019-02-17T22:38:43.056Z,98708.98
2019-02-17T22:41:14.618Z,98714.93
2019-02-17T22:43:46.233Z,98716.20
2019-02-17T22:46:17.795Z,98714.16
2019-02-17T22:48:52.809Z,98716.92
2019-02-17T22:51:26.114Z,98709.86
2019-02-17T22:53:58.054Z,98710.43
2019-02-17T22:56:29.935Z,98711.20
2019-02-17T22:59:04.424Z,98711.55
2019-02-17T23:01:40.308Z,98709.59
2019-02-17T23:04:15.186Z,98713.47
2019-02-17T23:06:53.744Z,98712.40
2019-02-17T23:09:23.584Z,98710.81
2019-02-17T23:12:03.545Z,98705.64
2019-02-17T23:14:38.809Z,98710.03
2019-02-17T23:17:15.620Z,98711.03
2019-02-17T23:19:49.993Z,98711.14
2019-02-17T23:22:24.806Z,98712.66
2019-02-17T23:24:56.942Z,98718.13
2019-02-17T23:27:28.612Z,98718.28
2019-02-17T23:30:00.468Z,98712.66
2019-02-17T23:32:33.654Z,98711.94
2019-02-17T23:35:05.532Z,98712.10
2019-02-17T23:37:37.119Z,98715.30
2019-02-17T23:40:10.415Z,98710.52
2019-02-17T23:42:43.382Z,98706.85
2019-02-17T23:45:15.279Z,98710.30
2019-02-17T23:47:47.123Z,98706.59
2019-02-17T23:50:18.988Z,98711.13
2019-02-17T23:52:54.406Z,98709.19
2019-02-17T23:55:28.425Z,98710.53
2019-02-17T23:58:04.168Z,98714.36
